Time;durP1;ratioP1;P1;durP2;ratioP2;P2;SDS_P1;SDS_P2;PMS_P1;PMS_P2;Temp;Humidity;BMP_temperature;BMP_pressure;BME280_temperature;BME280_humidity;BME280_pressure;Samples;Min_cycle;Max_cycle;Signal;HPM_P1;HPM_P2
2021/12/31 00:01:37;;;;;;;9.35;2.13;;;;;;;;;;5039703;28;20076;-80
2021/12/31 00:04:03;;;;;;;12.90;2.47;;;;;;;;;;5054988;28;20765;-81
2021/12/31 00:06:30;;;;;;;10.02;2.28;;;;;;;;;;5039346;28;20045;-80
2021/12/31 00:08:56;;;;;;;13.75;2.78;;;;;;;;;;5050830;28;20905;-79
2021/12/31 00:11:22;;;;;;;13.18;3.50;;;;;;;;;;5054885;28;20275;-80
2021/12/31 00:13:48;;;;;;;16.88;3.15;;;;;;;;;;5054685;28;20117;-80
2021/12/31 00:16:14;;;;;;;13.90;3.05;;;;;;;;;;5041065;28;20135;-80
2021/12/31 00:18:40;;;;;;;12.32;2.67;;;;;;;;;;5039760;28;20040;-80
2021/12/31 00:21:07;;;;;;;12.10;3.35;;;;;;;;;;5057076;28;20103;-80
2021/12/31 00:23:33;;;;;;;18.45;2.63;;;;;;;;;;5055733;28;20037;-80
2021/12/31 00:26:00;;;;;;;19.52;3.17;;;;;;;;;;5054961;28;20064;-80
2021/12/31 00:28:26;;;;;;;17.48;2.72;;;;;;;;;;5057633;28;20461;-79
2021/12/31 00:30:54;;;;;;;22.13;3.40;;;;;;;;;;5050745;28;20115;-80
2021/12/31 00:33:24;;;;;;;13.70;3.33;;;;;;;;;;5033234;28;20041;-80
2021/12/31 00:35:50;;;;;;;17.30;3.75;;;;;;;;;;5057619;28;20032;-80
2021/12/31 00:38:16;;;;;;;11.10;2.70;;;;;;;;;;5041361;28;20072;-79
2021/12/31 00:40:43;;;;;;;14.27;2.17;;;;;;;;;;5041041;28;20037;-79
2021/12/31 00:43:11;;;;;;;10.48;2.72;;;;;;;;;;5035120;28;20047;-79
2021/12/31 00:45:40;;;;;;;17.75;4.20;;;;;;;;;;5039805;28;20036;-79
2021/12/31 00:48:07;;;;;;;18.60;3.00;;;;;;;;;;5056626;28;20208;-78
2021/12/31 00:50:34;;;;;;;11.13;2.83;;;;;;;;;;5054507;28;20093;-79
2021/12/31 00:53:00;;;;;;;15.93;4.35;;;;;;;;;;5038960;28;20040;-79
2021/12/31 00:55:27;;;;;;;14.25;2.75;;;;;;;;;;5058233;28;20095;-79
2021/12/31 00:57:53;;;;;;;18.90;3.22;;;;;;;;;;5052537;28;20036;-79
2021/12/31 01:00:19;;;;;;;16.20;3.63;;;;;;;;;;5056279;28;20032;-78
2021/12/31 01:02:46;;;;;;;16.83;2.88;;;;;;;;;;5055668;28;20497;-80
2021/12/31 01:05:13;;;;;;;14.63;3.25;;;;;;;;;;5053012;28;20594;-78
2021/12/31 01:07:39;;;;;;;14.73;3.00;;;;;;;;;;5059827;28;20040;-78
2021/12/31 01:10:06;;;;;;;20.13;3.47;;;11.80;99.90;;;;;;5044081;28;20655;-78
2021/12/31 01:12:33;;;;;;;14.25;2.65;;;;;;;;;;5058914;28;20051;-78
2021/12/31 01:15:03;;;;;;;16.08;3.45;;;;;;;;;;5042625;28;20215;-78
2021/12/31 01:18:14;;;;;;;22.60;3.67;;;;;;;;;;5055668;28;20407;-78
2021/12/31 01:20:31;;;;;;;13.68;2.92;;;;;;;;;;5059307;28;20126;-78
2021/12/31 01:22:58;;;;;;;15.57;3.05;;;;;;;;;;5042721;28;20052;-78
2021/12/31 01:25:24;;;;;;;12.65;2.78;;;;;;;;;;5043642;28;20070;-78
2021/12/31 01:27:51;;;;;;;12.40;3.72;;;;;;;;;;5056350;28;20542;-78
2021/12/31 01:30:17;;;;;;;8.90;2.72;;;;;;;;;;5055172;28;20173;-78
2021/12/31 01:32:45;;;;;;;14.32;3.35;;;;;;;;;;5060132;28;20454;-78
2021/12/31 01:35:11;;;;;;;19.60;3.92;;;;;;;;;;5057604;28;20561;-79
2021/12/31 01:37:37;;;;;;;21.17;4.30;;;;;;;;;;5049532;28;20045;-79
2021/12/31 01:40:04;;;;;;;17.08;2.92;;;;;;;;;;5057994;28;20098;-79
2021/12/31 01:42:33;;;;;;;19.77;4.10;;;;;;;;;;5042006;28;20043;-78
2021/12/31 01:45:13;;;;;;;14.25;2.38;;;;;;;;;;5037802;28;20672;-79
2021/12/31 01:48:07;;;;;;;17.05;3.25;;;;;;;;;;5051075;28;20067;-78
2021/12/31 01:50:28;;;;;;;6.65;2.80;;;;;;;;;;5052150;28;20154;-79
2021/12/31 01:52:54;;;;;;;10.95;2.78;;;;;;;;;;5048120;28;20945;-79
2021/12/31 01:55:22;;;;;;;12.27;2.92;;;;;;;;;;5054964;28;20052;-79
2021/12/31 01:57:48;;;;;;;14.65;2.90;;;12.00;99.90;;;;;;5059100;28;20060;-79
2021/12/31 02:00:15;;;;;;;12.68;3.00;;;;;;;;;;5041545;28;20075;-79
2021/12/31 02:02:46;;;;;;;14.07;2.65;;;;;;;;;;5059104;28;20097;-79
2021/12/31 02:05:12;;;;;;;13.88;3.53;;;;;;;;;;5043662;28;20119;-78
2021/12/31 02:07:39;;;;;;;14.13;2.75;;;;;;;;;;5058363;28;20503;-79
2021/12/31 02:10:06;;;;;;;15.32;2.83;;;;;;;;;;5047128;28;20041;-79
2021/12/31 02:12:32;;;;;;;12.10;2.50;;;;;;;;;;5035609;28;20590;-79
2021/12/31 02:14:59;;;;;;;10.82;2.20;;;;;;;;;;5052360;28;20095;-78
2021/12/31 02:17:25;;;;;;;10.23;2.38;;;;;;;;;;5056273;28;20503;-78
2021/12/31 02:20:00;;;;;;;8.93;1.60;;;;;;;;;;5056842;28;20044;-78
2021/12/31 02:22:28;;;;;;;11.25;2.50;;;;;;;;;;5046649;28;20485;-78
2021/12/31 02:24:55;;;;;;;16.92;3.72;;;;;;;;;;5052281;28;20098;-79
2021/12/31 02:27:23;;;;;;;13.75;3.13;;;;;;;;;;5058391;28;20156;-79
2021/12/31 02:29:49;;;;;;;7.47;2.08;;;;;;;;;;5035514;28;20130;-79
2021/12/31 02:32:15;;;;;;;6.97;2.33;;;;;;;;;;5057053;28;20334;-79
2021/12/31 02:34:42;;;;;;;9.30;2.10;;;;;;;;;;5057254;28;20110;-78
2021/12/31 02:37:08;;;;;;;10.07;2.47;;;;;;;;;;5043261;28;20036;-79
2021/12/31 02:39:38;;;;;;;19.60;2.92;;;;;;;;;;5054097;28;20134;-79
2021/12/31 02:42:05;;;;;;;8.18;1.95;;;;;;;;;;5050081;28;20057;-78
2021/12/31 02:44:31;;;;;;;9.98;2.42;;;;;;;;;;5052483;28;20037;-79
2021/12/31 02:47:02;;;;;;;8.95;2.63;;;;;;;;;;5058764;28;20090;-79
2021/12/31 02:49:29;;;;;;;10.40;2.08;;;;;;;;;;5052805;28;20079;-79
2021/12/31 02:52:02;;;;;;;14.00;2.20;;;;;;;;;;5057721;28;20044;-79
2021/12/31 02:54:29;;;;;;;15.57;3.33;;;12.10;99.90;;;;;;5042553;28;20532;-79
2021/12/31 02:56:56;;;;;;;17.88;2.83;;;;;;;;;;5050488;28;20644;-79
2021/12/31 02:59:22;;;;;;;9.88;3.38;;;;;;;;;;5039207;28;20506;-79
2021/12/31 03:01:49;;;;;;;12.15;3.25;;;;;;;;;;5041488;28;20151;-79
2021/12/31 03:04:15;;;;;;;10.65;2.85;;;;;;;;;;5042372;28;20044;-79
2021/12/31 03:06:43;;;;;;;11.70;3.13;;;;;;;;;;5055725;28;20114;-79
2021/12/31 03:09:11;;;;;;;12.80;2.70;;;12.20;99.90;;;;;;5034950;28;20492;-78
2021/12/31 03:11:37;;;;;;;9.77;2.50;;;;;;;;;;5053988;28;20048;-78
2021/12/31 03:14:05;;;;;;;7.93;2.30;;;;;;;;;;5055625;28;20044;-79
2021/12/31 03:16:33;;;;;;;7.88;2.15;;;;;;;;;;5043619;28;20736;-79
2021/12/31 03:18:59;;;;;;;13.20;2.78;;;;;;;;;;5032816;28;20454;-79
2021/12/31 03:21:25;;;;;;;17.00;3.30;;;;;;;;;;5050374;28;20583;-79
2021/12/31 03:23:55;;;;;;;13.00;2.80;;;;;;;;;;5034929;28;20106;-79
2021/12/31 03:26:22;;;;;;;13.55;3.80;;;;;;;;;;5052668;28;20053;-78
2021/12/31 03:28:48;;;;;;;7.22;1.60;;;;;;;;;;5052025;28;20045;-78
2021/12/31 03:31:14;;;;;;;15.45;2.63;;;;;;;;;;5055213;28;20056;-79
2021/12/31 03:33:40;;;;;;;7.03;2.17;;;;;;;;;;5049631;28;20044;-79
2021/12/31 03:36:06;;;;;;;11.43;3.28;;;;;;;;;;5052459;28;20515;-79
2021/12/31 03:38:33;;;;;;;11.48;3.00;;;;;;;;;;5054428;28;20036;-79
2021/12/31 03:40:59;;;;;;;10.13;2.53;;;;;;;;;;5050093;28;20083;-78
2021/12/31 03:43:25;;;;;;;8.27;2.22;;;;;;;;;;5057239;28;20040;-79
2021/12/31 03:45:53;;;;;;;12.65;2.65;;;;;;;;;;5040915;28;20115;-79
2021/12/31 03:48:19;;;;;;;8.82;1.88;;;;;;;;;;5056209;28;20115;-79
2021/12/31 03:50:46;;;;;;;14.55;2.95;;;;;;;;;;5054947;28;20120;-79
2021/12/31 03:53:14;;;;;;;11.52;1.83;;;;;;;;;;5053270;28;20036;-78
2021/12/31 03:55:40;;;;;;;10.88;2.00;;;;;;;;;;5055158;28;20040;-78
2021/12/31 03:58:07;;;;;;;12.02;2.63;;;;;;;;;;5030779;28;20155;-78
2021/12/31 04:00:33;;;;;;;17.85;2.45;;;;;;;;;;5040347;28;20037;-78
2021/12/31 04:03:06;;;;;;;17.80;2.65;;;12.20;99.90;;;;;;5050062;28;20568;-78
2021/12/31 04:05:32;;;;;;;13.52;2.65;;;;;;;;;;5057712;28;20040;-78
2021/12/31 04:07:58;;;;;;;12.73;2.70;;;;;;;;;;5038890;28;20098;-78
2021/12/31 04:10:25;;;;;;;13.82;2.55;;;;;;;;;;5057800;28;20044;-78
2021/12/31 04:12:52;;;;;;;8.90;2.58;;;;;;;;;;5054392;28;20359;-78
2021/12/31 04:15:18;;;;;;;12.30;2.15;;;;;;;;;;5055696;28;20107;-78
2021/12/31 04:17:44;;;;;;;15.00;2.22;;;;;;;;;;5053016;28;20128;-78
2021/12/31 04:20:18;;;;;;;14.68;2.22;;;12.40;99.90;;;;;;5057070;28;20076;-78
2021/12/31 04:22:52;;;;;;;11.77;2.63;;;;;;;;;;5053101;28;20125;-78
2021/12/31 04:25:18;;;;;;;5.93;1.65;;;;;;;;;;5050994;28;20086;-78
2021/12/31 04:27:44;;;;;;;11.75;2.72;;;;;;;;;;5040808;28;20048;-78
2021/12/31 04:30:11;;;;;;;10.50;2.35;;;;;;;;;;5034345;28;20033;-78
2021/12/31 04:32:39;;;;;;;8.80;2.33;;;;;;;;;;5032572;28;20462;-77
2021/12/31 04:35:06;;;;;;;9.63;2.47;;;;;;;;;;5057795;28;20407;-78
2021/12/31 04:37:32;;;;;;;15.70;3.40;;;;;;;;;;5055829;28;20067;-77
2021/12/31 04:39:58;;;;;;;11.80;3.08;;;;;;;;;;5055896;28;20092;-78
2021/12/31 04:42:24;;;;;;;21.23;3.60;;;;;;;;;;5042681;28;20844;-78
2021/12/31 04:44:50;;;;;;;12.55;4.22;;;;;;;;;;5060792;28;20043;-78
2021/12/31 04:47:16;;;;;;;15.63;2.50;;;;;;;;;;5058980;28;20044;-77
2021/12/31 04:49:43;;;;;;;13.70;2.50;;;;;;;;;;5055288;28;20508;-78
2021/12/31 04:52:09;;;;;;;9.10;2.55;;;;;;;;;;5059729;28;20059;-78
2021/12/31 04:54:35;;;;;;;13.80;2.78;;;;;;;;;;5060412;28;20059;-78
2021/12/31 04:57:03;;;;;;;10.90;2.67;;;12.30;99.90;;;;;;5058071;28;20069;-78
2021/12/31 04:59:29;;;;;;;16.90;3.20;;;;;;;;;;5060001;28;20055;-77
2021/12/31 05:01:55;;;;;;;14.07;2.95;;;;;;;;;;5054710;28;20937;-77
2021/12/31 05:04:21;;;;;;;10.77;2.15;;;;;;;;;;5059783;28;20475;-77
2021/12/31 05:06:49;;;;;;;11.75;2.13;;;;;;;;;;5060721;28;20123;-77
2021/12/31 05:09:16;;;;;;;3.85;1.65;;;;;;;;;;5042055;28;20063;-78
2021/12/31 05:11:42;;;;;;;8.23;1.55;;;;;;;;;;5037890;28;20048;-77
2021/12/31 05:14:09;;;;;;;8.30;1.70;;;;;;;;;;5044071;28;20044;-77
2021/12/31 05:16:35;;;;;;;11.32;2.25;;;;;;;;;;5042972;28;20041;-78
2021/12/31 05:19:03;;;;;;;10.68;2.13;;;;;;;;;;5059318;28;20091;-77
2021/12/31 05:21:29;;;;;;;8.63;2.22;;;;;;;;;;5057632;28;20098;-78
2021/12/31 05:23:55;;;;;;;14.25;2.30;;;;;;;;;;5056228;28;20701;-78
2021/12/31 05:26:21;;;;;;;4.40;1.88;;;;;;;;;;5056351;28;20060;-78
2021/12/31 05:28:47;;;;;;;7.65;1.88;;;;;;;;;;5057800;28;20078;-79
2021/12/31 05:31:13;;;;;;;4.85;2.05;;;;;;;;;;5042585;28;20045;-78
2021/12/31 05:33:40;;;;;;;7.82;2.58;;;;;;;;;;5054701;28;20033;-79
2021/12/31 05:36:06;;;;;;;8.38;2.03;;;;;;;;;;5036010;28;20644;-80
2021/12/31 05:38:32;;;;;;;6.07;1.58;;;;;;;;;;5054427;28;20041;-79
2021/12/31 05:40:58;;;;;;;10.93;1.92;;;;;;;;;;5047180;28;20142;-78
2021/12/31 05:43:25;;;;;;;9.43;1.95;;;;;;;;;;5041997;28;20685;-79
2021/12/31 05:45:51;;;;;;;11.48;2.90;;;;;;;;;;5051853;28;20067;-79
2021/12/31 05:48:17;;;;;;;9.02;1.85;;;;;;;;;;5061398;28;20037;-79
2021/12/31 05:50:44;;;;;;;8.57;2.33;;;;;;;;;;5060158;28;20083;-78
2021/12/31 05:53:10;;;;;;;8.32;2.17;;;;;;;;;;5057529;28;20044;-79
2021/12/31 05:55:36;;;;;;;5.07;1.50;;;;;;;;;;5039207;28;20050;-79
2021/12/31 05:58:02;;;;;;;10.75;2.85;;;;;;;;;;5042474;28;20101;-79
2021/12/31 06:00:29;;;;;;;9.07;2.08;;;;;;;;;;5060656;28;20079;-79
2021/12/31 06:02:58;;;;;;;3.53;1.92;;;12.20;99.90;;;;;;5053545;28;20300;-78
2021/12/31 06:05:26;;;;;;;10.27;3.35;;;;;;;;;;5065925;28;20414;-78
2021/12/31 06:07:55;;;;;;;7.18;1.35;;;;;;;;;;5057511;28;20036;-78
2021/12/31 06:10:22;;;;;;;10.73;2.70;;;;;;;;;;5039738;28;20040;-79
2021/12/31 06:12:48;;;;;;;4.95;1.42;;;;;;;;;;5053411;28;20489;-79
2021/12/31 06:15:16;;;;;;;4.90;1.75;;;;;;;;;;5055365;28;20040;-79
2021/12/31 06:17:43;;;;;;;4.82;2.25;;;;;;;;;;5056127;28;20044;-79
2021/12/31 06:20:10;;;;;;;10.73;3.35;;;12.10;99.90;;;;;;5059489;28;20044;-79
2021/12/31 06:22:36;;;;;;;10.68;2.30;;;;;;;;;;5056842;28;20048;-78
2021/12/31 06:25:04;;;;;;;3.47;1.42;;;11.10;99.90;;;;;;5051814;28;20102;-79
2021/12/31 06:27:30;;;;;;;10.07;2.42;;;;;;;;;;5059299;28;20126;-78
2021/12/31 06:29:56;;;;;;;9.77;2.15;;;;;;;;;;5032803;28;20036;-78
2021/12/31 06:32:22;;;;;;;7.53;2.15;;;;;;;;;;5037234;28;20048;-78
2021/12/31 06:34:48;;;;;;;9.75;2.00;;;;;;;;;;5043668;28;20427;-78
2021/12/31 06:37:15;;;;;;;6.95;1.27;;;;;;;;;;5042696;28;20364;-80
2021/12/31 06:39:43;;;;;;;9.00;1.98;;;;;;;;;;5041558;28;20044;-78
2021/12/31 06:42:09;;;;;;;3.97;1.33;;;;;;;;;;5058217;28;20044;-79
2021/12/31 06:44:36;;;;;;;5.32;1.58;;;;;;;;;;5058494;28;20028;-79
2021/12/31 06:47:03;;;;;;;9.30;1.85;;;;;;;;;;5048300;28;20036;-79
2021/12/31 06:49:30;;;;;;;5.60;1.70;;;;;;;;;;5039658;28;20052;-79
2021/12/31 06:51:56;;;;;;;7.53;1.67;;;;;;;;;;5058784;28;20044;-79
2021/12/31 06:54:22;;;;;;;9.40;2.10;;;;;;;;;;5057111;28;20075;-79
2021/12/31 06:56:49;;;;;;;7.47;2.10;;;;;;;;;;5058634;28;20044;-79
2021/12/31 06:59:15;;;;;;;8.20;2.00;;;;;;;;;;5057986;28;20040;-79
2021/12/31 07:01:41;;;;;;;5.00;1.85;;;;;;;;;;5056381;28;20051;-80
2021/12/31 07:04:07;;;;;;;7.38;1.73;;;;;;;;;;5055969;28;20041;-78
2021/12/31 07:06:34;;;;;;;8.70;1.92;;;;;;;;;;5055455;28;20239;-78
2021/12/31 07:09:00;;;;;;;7.55;1.50;;;;;;;;;;5055828;28;20119;-78
2021/12/31 07:11:26;;;;;;;6.20;2.28;;;;;;;;;;5058816;28;20033;-78
2021/12/31 07:13:52;;;;;;;6.88;2.03;;;;;;;;;;5042267;28;20029;-78
2021/12/31 07:16:19;;;;;;;8.25;2.67;;;;;;;;;;5056933;28;20040;-79
2021/12/31 07:18:45;;;;;;;7.82;2.28;;;;;;;;;;5056074;28;20384;-78
2021/12/31 07:21:11;;;;;;;6.05;2.25;;;;;;;;;;5057314;28;20044;-78
2021/12/31 07:23:37;;;;;;;10.65;2.88;;;;;;;;;;5048202;28;20090;-78
2021/12/31 07:26:04;;;;;;;8.35;2.03;;;;;;;;;;5058024;28;20048;-78
2021/12/31 07:28:30;;;;;;;4.75;1.55;;;;;;;;;;5057216;28;20128;-78
2021/12/31 07:30:56;;;;;;;5.28;1.80;;;;;;;;;;5057296;28;20041;-78
2021/12/31 07:33:23;;;;;;;6.22;2.17;;;;;;;;;;5041544;28;20045;-78
2021/12/31 07:35:50;;;;;;;7.55;2.38;;;;;;;;;;5054774;28;20051;-78
2021/12/31 07:38:39;;;;;;;6.97;2.58;;;;;;;;;;5040537;28;20048;-78
2021/12/31 07:41:05;;;;;;;9.88;2.15;;;;;;;;;;5048913;28;20367;-77
2021/12/31 07:43:32;;;;;;;5.13;2.20;;;;;;;;;;5052210;28;20044;-77
2021/12/31 07:45:59;;;;;;;6.50;1.67;;;;;;;;;;5054020;28;20045;-78
2021/12/31 07:48:25;;;;;;;6.40;1.80;;;;;;;;;;5038697;28;20123;-78
2021/12/31 07:50:52;;;;;;;10.18;2.40;;;;;;;;;;5036192;28;20040;-78
2021/12/31 07:53:18;;;;;;;11.43;1.90;;;;;;;;;;5038019;28;20393;-79
2021/12/31 07:55:44;;;;;;;7.13;1.50;;;;;;;;;;5050884;28;21544;-81
2021/12/31 07:58:11;;;;;;;10.43;1.90;;;;;;;;;;5051323;28;20125;-81
2021/12/31 08:00:37;;;;;;;7.28;2.85;;;;;;;;;;5040146;28;20177;-81
2021/12/31 08:03:03;;;;;;;7.60;2.60;;;11.40;99.90;;;;;;5029092;28;20048;-82
2021/12/31 08:05:30;;;;;;;13.25;3.03;;;;;;;;;;5044756;28;20071;-79
2021/12/31 08:07:56;;;;;;;5.35;2.22;;;;;;;;;;5043812;28;20044;-79
2021/12/31 08:10:22;;;;;;;7.15;2.35;;;;;;;;;;5053792;28;20033;-79
2021/12/31 08:12:48;;;;;;;7.88;2.40;;;;;;;;;;5056443;28;20045;-79
2021/12/31 08:15:15;;;;;;;10.07;2.47;;;;;;;;;;5052995;28;20056;-79
2021/12/31 08:17:41;;;;;;;10.75;2.80;;;;;;;;;;5058233;28;20052;-79
2021/12/31 08:20:07;;;;;;;9.05;2.60;;;;;;;;;;5032026;28;20059;-79
2021/12/31 08:22:33;;;;;;;3.20;1.92;;;;;;;;;;5033629;28;20602;-79
2021/12/31 08:25:00;;;;;;;11.07;3.20;;;;;;;;;;5037625;28;20801;-80
2021/12/31 08:27:26;;;;;;;7.45;2.08;;;;;;;;;;5053592;28;20423;-79
2021/12/31 08:29:52;;;;;;;7.13;2.38;;;;;;;;;;5038000;28;20081;-78
2021/12/31 08:32:19;;;;;;;6.60;2.30;;;;;;;;;;5057042;28;20090;-81
2021/12/31 08:34:45;;;;;;;10.65;2.75;;;;;;;;;;5052286;28;20458;-79
2021/12/31 08:37:11;;;;;;;9.75;2.45;;;;;;;;;;5042585;28;20087;-79
2021/12/31 08:39:37;;;;;;;11.90;2.50;;;;;;;;;;5039269;28;20103;-79
2021/12/31 08:42:03;;;;;;;13.63;2.63;;;11.70;99.90;;;;;;5043885;28;20040;-79
2021/12/31 08:44:29;;;;;;;7.63;1.92;;;;;;;;;;5024048;28;20051;-79
2021/12/31 08:46:56;;;;;;;10.68;2.28;;;;;;;;;;5053084;28;20152;-80
2021/12/31 08:49:24;;;;;;;7.60;2.47;;;;;;;;;;5051706;28;20040;-78
2021/12/31 08:51:50;;;;;;;6.68;2.63;;;11.70;99.90;;;;;;5056670;28;20163;-79
2021/12/31 08:54:16;;;;;;;12.15;3.00;;;;;;;;;;5044087;28;20044;-79
2021/12/31 08:56:45;;;;;;;10.85;2.25;;;;;;;;;;5053766;28;20036;-79
2021/12/31 08:59:12;;;;;;;9.43;1.75;;;;;;;;;;5039666;28;20047;-79
2021/12/31 09:01:39;;;;;;;12.18;2.83;;;;;;;;;;5056527;28;20040;-79
2021/12/31 09:04:05;;;;;;;15.35;2.65;;;;;;;;;;5039182;28;20174;-81
2021/12/31 09:06:31;;;;;;;13.98;2.90;;;;;;;;;;5053283;28;20041;-79
2021/12/31 09:08:57;;;;;;;8.63;3.20;;;;;;;;;;5048729;28;20468;-79
2021/12/31 09:11:23;;;;;;;17.23;2.78;;;;;;;;;;5044114;28;20090;-79
2021/12/31 09:13:51;;;;;;;9.45;3.03;;;;;;;;;;5054598;28;20127;-78
2021/12/31 09:16:17;;;;;;;11.45;2.67;;;;;;;;;;5050067;28;20059;-80
2021/12/31 09:18:44;;;;;;;6.45;1.90;;;;;;;;;;5035424;28;20567;-77
2021/12/31 09:21:10;;;;;;;9.85;2.67;;;;;;;;;;5055521;28;20048;-79
2021/12/31 09:23:36;;;;;;;6.82;1.95;;;;;;;;;;5048720;28;20037;-78
2021/12/31 09:26:03;;;;;;;10.57;2.67;;;;;;;;;;5031251;28;20498;-80
2021/12/31 09:28:29;;;;;;;15.02;2.72;;;;;;;;;;5051983;28;20587;-80
2021/12/31 09:31:00;;;;;;;7.18;2.58;;;;;;;;;;5057384;28;20040;-82
2021/12/31 09:33:27;;;;;;;14.77;2.97;;;;;;;;;;5040744;28;20458;-81
2021/12/31 09:35:53;;;;;;;13.30;2.88;;;;;;;;;;5055059;28;20558;-82
2021/12/31 09:38:19;;;;;;;12.02;2.75;;;;;;;;;;5054602;28;20051;-83
2021/12/31 09:40:45;;;;;;;10.13;2.72;;;;;;;;;;5056531;28;20089;-80
2021/12/31 09:43:12;;;;;;;11.52;2.70;;;;;;;;;;5060552;28;20048;-82
2021/12/31 09:45:40;;;;;;;12.40;2.78;;;;;;;;;;5060170;28;20045;-82
2021/12/31 09:48:16;;;;;;;12.75;2.45;;;;;;;;;;5042312;28;20115;-82
2021/12/31 09:50:44;;;;;;;8.85;2.83;;;;;;;;;;5044040;28;20455;-82
2021/12/31 09:53:11;;;;;;;11.48;2.08;;;;;;;;;;5043854;28;20110;-83
2021/12/31 09:55:40;;;;;;;8.93;2.78;;;;;;;;;;5059820;28;20040;-80
2021/12/31 09:58:08;;;;;;;10.95;2.90;;;;;;;;;;5044004;28;20055;-80
2021/12/31 10:00:34;;;;;;;7.88;2.08;;;;;;;;;;5059129;28;20147;-80
2021/12/31 10:03:25;;;;;;;10.82;2.13;;;10.80;99.90;;;;;;5043542;28;20040;-80
2021/12/31 10:05:52;;;;;;;11.40;2.85;;;;;;;;;;5055521;28;20818;-80
2021/12/31 10:08:38;;;;;;;10.48;2.70;;;10.90;99.90;;;;;;5051803;28;20135;-81
2021/12/31 10:11:21;;;;;;;7.13;1.90;;;;;;;;;;5043900;28;20591;-81
2021/12/31 10:13:56;;;;;;;7.72;1.80;;;10.90;99.90;;;;;;5059517;28;20063;-82
2021/12/31 10:16:22;;;;;;;;;;;;;;;;;;5072761;28;20496;-81
2021/12/31 10:18:49;;;;;;;11.23;2.75;;;;;;;;;;5039962;28;19921;-81
2021/12/31 10:21:19;;;;;;;11.68;2.83;;;;;;;;;;5056929;28;20530;-81
2021/12/31 10:23:46;;;;;;;4.93;1.88;;;;;;;;;;5038018;28;20055;-81
2021/12/31 10:26:13;;;;;;;8.65;2.83;;;;;;;;;;5041652;28;20057;-81
2021/12/31 10:28:56;;;;;;;10.52;2.70;;;;;;;;;;5038922;28;20083;-81
2021/12/31 10:31:22;;;;;;;6.40;2.08;;;;;;;;;;5058493;28;20044;-81
2021/12/31 10:33:49;;;;;;;12.32;3.20;;;;;;;;;;5044115;28;20070;-80
2021/12/31 10:36:35;;;;;;;6.85;2.80;;;;;;;;;;5044001;28;20194;-81
2021/12/31 10:39:14;;;;;;;9.45;2.80;;;;;;;;;;5058642;28;20036;-81
2021/12/31 10:41:41;;;;;;;9.18;2.30;;;;;;;;;;5057298;28;20105;-80
2021/12/31 10:44:07;;;;;;;11.00;2.95;;;;;;;;;;5039987;28;20056;-81
2021/12/31 10:46:33;;;;;;;7.47;2.50;;;;;;;;;;5036881;28;20032;-81
2021/12/31 10:49:06;;;;;;;10.38;3.25;;;;;;;;;;5052618;28;20563;-82
2021/12/31 10:51:44;;;;;;;7.57;2.50;;;;;;;;;;5054845;28;20074;-81
2021/12/31 10:54:32;;;;;;;9.15;2.60;;;;;;;;;;5049597;28;20127;-82
2021/12/31 10:56:59;;;;;;;6.70;2.85;;;;;;;;;;5051848;28;20084;-84
2021/12/31 10:59:26;;;;;;;9.32;3.25;;;;;;;;;;5060331;28;20418;-85
2021/12/31 11:01:54;;;;;;;10.85;3.05;;;;;;;;;;5057223;28;20076;-83
2021/12/31 11:04:21;;;;;;;8.98;2.78;;;;;;;;;;5060558;28;20048;-85
2021/12/31 11:06:47;;;;;;;10.60;2.65;;;;;;;;;;5056181;28;20578;-81
2021/12/31 11:09:14;;;;;;;7.05;2.25;;;;;;;;;;5047985;28;20120;-84
2021/12/31 11:11:43;;;;;;;13.32;3.33;;;;;;;;;;5057562;28;20048;-84
2021/12/31 11:14:10;;;;;;;8.95;2.58;;;;;;;;;;5058270;28;20293;-84
2021/12/31 11:16:39;;;;;;;6.93;2.28;;;;;;;;;;5053697;28;20053;-83
2021/12/31 11:19:06;;;;;;;10.88;2.03;;;;;;;;;;5057006;28;20129;-83
2021/12/31 11:21:32;;;;;;;8.82;3.25;;;;;;;;;;5056273;28;20043;-84
2021/12/31 11:24:28;;;;;;;8.55;2.50;;;10.60;99.90;;;;;;5040354;28;20538;-84
2021/12/31 11:26:54;;;;;;;12.10;3.42;;;;;;;;;;5034706;28;20056;-82
2021/12/31 11:29:20;;;;;;;12.10;2.33;;;;;;;;;;5040945;28;20053;-81
2021/12/31 11:31:46;;;;;;;9.90;2.95;;;;;;;;;;5051606;28;20059;-82
2021/12/31 11:34:13;;;;;;;8.82;3.00;;;;;;;;;;5034859;28;20146;-82
2021/12/31 11:36:53;;;;;;;5.80;1.70;;;;;;;;;;5053597;28;20082;-82
2021/12/31 11:39:24;;;;;;;12.10;3.05;;;;;;;;;;5053968;28;20055;-81
2021/12/31 11:41:51;;;;;;;9.73;3.08;;;;;;;;;;5056244;28;20043;-82
2021/12/31 11:44:19;;;;;;;6.30;2.78;;;;;;;;;;5036742;28;20040;-83
2021/12/31 11:46:45;;;;;;;5.38;2.08;;;;;;;;;;5057911;28;20040;-83
2021/12/31 11:49:26;;;;;;;12.45;3.13;;;10.70;99.90;;;;;;5053989;28;20159;-82
2021/12/31 11:52:00;;;;;;;6.13;1.88;;;;;;;;;;5058761;28;20044;-81
2021/12/31 11:54:27;;;;;;;9.35;3.22;;;;;;;;;;5046524;28;20052;-82
2021/12/31 11:56:54;;;;;;;7.63;2.72;;;;;;;;;;5044665;28;20044;-83
2021/12/31 11:59:20;;;;;;;8.77;2.38;;;;;;;;;;5061019;28;20044;-84
2021/12/31 12:01:48;;;;;;;7.00;1.88;;;;;;;;;;5040863;28;20100;-84
2021/12/31 12:04:30;;;;;;;9.40;2.03;;;;;;;;;;5058292;28;20102;-85
2021/12/31 12:07:01;;;;;;;4.97;1.58;;;10.60;99.90;;;;;;5032862;28;20407;-84
2021/12/31 12:09:36;;;;;;;6.40;2.08;;;;;;;;;;5036263;28;20051;-83
2021/12/31 12:12:06;;;;;;;5.90;2.38;;;;;;;;;;5057077;28;20127;-84
2021/12/31 12:14:38;;;;;;;6.22;2.35;;;;;;;;;;5057554;28;20132;-83
2021/12/31 12:17:04;;;;;;;5.53;1.70;;;;;;;;;;5047002;28;20080;-83
2021/12/31 12:19:46;;;;;;;8.77;2.38;;;;;;;;;;5051825;28;20051;-82
2021/12/31 12:22:33;;;;;;;7.82;2.28;;;10.60;99.90;;;;;;5036961;28;20399;-84
2021/12/31 12:25:05;;;;;;;6.18;2.13;;;10.60;99.90;;;;;;5051055;28;20047;-82
2021/12/31 12:27:31;;;;;;;8.10;2.30;;;;;;;;;;5058030;28;20057;-83
2021/12/31 12:29:58;;;;;;;5.93;2.08;;;;;;;;;;5055870;28;20582;-83
2021/12/31 12:32:51;;;;;;;7.63;2.78;;;;;;;;;;5048423;28;20049;-83
2021/12/31 12:35:18;;;;;;;3.72;1.98;;;;;;;;;;5056092;28;20051;-82
2021/12/31 12:37:54;;;;;;;9.38;1.77;;;;;;;;;;5048357;28;20056;-83
2021/12/31 12:40:20;;;;;;;5.82;2.08;;;;;;;;;;5036855;28;20049;-83
2021/12/31 12:42:46;;;;;;;4.93;1.75;;;;;;;;;;5045239;28;20878;-82
2021/12/31 12:45:13;;;;;;;14.40;2.78;;;;;;;;;;5057802;28;20056;-82
2021/12/31 12:47:39;;;;;;;8.10;2.15;;;;;;;;;;5052769;28;20060;-83
2021/12/31 12:50:08;;;;;;;9.23;2.03;;;;;;;;;;5039876;28;20071;-83
2021/12/31 12:52:35;;;;;;;11.38;2.72;;;;;;;;;;5054714;28;20180;-83
2021/12/31 12:55:28;;;;;;;15.68;2.80;;;;;;;;;;5052215;28;20036;-82
2021/12/31 12:57:57;;;;;;;7.20;3.10;;;;;;;;;;5038177;28;20100;-82
2021/12/31 13:00:32;;;;;;;8.15;2.63;;;;;;;;;;5054664;28;20044;-82
2021/12/31 13:03:09;;;;;;;8.77;2.47;;;;;;;;;;5057797;28;20047;-83
2021/12/31 13:05:36;;;;;;;15.80;3.97;;;;;;;;;;5051634;28;20056;-83
2021/12/31 13:08:03;;;;;;;10.27;2.90;;;;;;;;;;5058781;28;20036;-83
2021/12/31 13:10:30;;;;;;;7.57;2.85;;;;;;;;;;5053439;28;20677;-84
2021/12/31 13:12:57;;;;;;;10.02;3.33;;;;;;;;;;5038435;28;20063;-84
2021/12/31 13:15:23;;;;;;;8.13;2.67;;;;;;;;;;5032214;28;20052;-84
2021/12/31 13:17:57;;;;;;;17.65;4.18;;;;;;;;;;5051496;28;20033;-83
2021/12/31 13:20:24;;;;;;;11.63;2.83;;;;;;;;;;5055566;28;20355;-84
2021/12/31 13:22:54;;;;;;;18.95;3.58;;;;;;;;;;5051622;28;20071;-84
2021/12/31 13:25:20;;;;;;;22.63;4.72;;;;;;;;;;5054087;28;20337;-83
2021/12/31 13:27:46;;;;;;;26.80;4.80;;;;;;;;;;5059285;28;20149;-85
2021/12/31 13:30:13;;;;;;;20.38;5.03;;;;;;;;;;5060651;28;20074;-83
2021/12/31 13:32:47;;;;;;;12.50;3.92;;;;;;;;;;5037047;28;20048;-84
2021/12/31 13:35:14;;;;;;;17.92;4.18;;;;;;;;;;5036039;28;20044;-85
2021/12/31 13:37:42;;;;;;;18.73;4.57;;;;;;;;;;5058511;28;20767;-84
2021/12/31 13:40:09;;;;;;;24.40;4.55;;;10.70;99.90;;;;;;5026614;28;20048;-84
2021/12/31 13:42:36;;;;;;;19.08;4.45;;;;;;;;;;5062011;28;20494;-83
2021/12/31 13:45:02;;;;;;;34.92;6.20;;;;;;;;;;5042190;28;20048;-84
2021/12/31 13:47:28;;;;;;;24.92;5.00;;;;;;;;;;5058332;28;20045;-84
2021/12/31 13:50:00;;;;;;;25.30;4.55;;;;;;;;;;5057758;28;20036;-83
2021/12/31 13:52:31;;;;;;;19.13;3.70;;;;;;;;;;5043878;28;20045;-83
2021/12/31 13:55:01;;;;;;;21.92;5.15;;;;;;;;;;5057878;28;20040;-83
2021/12/31 13:57:28;;;;;;;16.58;3.63;;;;;;;;;;5052549;28;20148;-83
2021/12/31 13:59:55;;;;;;;24.25;4.25;;;;;;;;;;5058194;28;20044;-83
2021/12/31 14:02:26;;;;;;;13.23;3.17;;;10.70;99.90;;;;;;5059215;28;20041;-82
2021/12/31 14:04:58;;;;;;;18.35;4.60;;;;;;;;;;5057355;28;20028;-83
2021/12/31 14:07:43;;;;;;;19.23;3.35;;;;;;;;;;5049690;28;20040;-83
2021/12/31 14:10:17;;;;;;;23.70;4.40;;;;;;;;;;5055142;28;20072;-83
2021/12/31 14:12:57;;;;;;;19.77;4.57;;;;;;;;;;5041276;28;20059;-84
2021/12/31 14:15:43;;;;;;;20.02;4.10;;;10.80;99.90;;;;;;5039815;28;20275;-84
2021/12/31 14:18:11;;;;;;;23.13;4.72;;;;;;;;;;5036871;28;20072;-84
2021/12/31 14:20:39;;;;;;;18.98;4.28;;;;;;;;;;5060148;28;20048;-84
2021/12/31 14:23:05;;;;;;;16.05;3.50;;;;;;;;;;5036481;28;20040;-84
2021/12/31 14:25:32;;;;;;;17.02;3.92;;;;;;;;;;5059192;28;20047;-84
2021/12/31 14:28:00;;;;;;;26.08;4.30;;;;;;;;;;5049609;28;20044;-84
2021/12/31 14:30:27;;;;;;;19.25;4.60;;;;;;;;;;5050082;28;20057;-84
2021/12/31 14:32:53;;;;;;;14.93;3.72;;;;;;;;;;5034664;28;20051;-84